createdAt,value
2023-12-11T00:02:23.178Z,7.32
2023-12-11T00:04:49.852Z,7.33
2023-12-11T00:07:16.720Z,7.25
2023-12-11T00:09:43.596Z,7.17
2023-12-11T00:12:10.468Z,7.19
2023-12-11T00:14:37.142Z,7.29
2023-12-11T00:17:03.966Z,7.29
2023-12-11T00:19:31.812Z,7.33
2023-12-11T00:21:58.642Z,7.33
2023-12-11T00:24:25.328Z,7.35
2023-12-11T00:26:52.073Z,7.42
2023-12-11T00:29:18.958Z,7.47
2023-12-11T00:31:45.729Z,7.47
2023-12-11T00:34:12.538Z,7.49
2023-12-11T00:36:39.385Z,7.45
2023-12-11T00:39:06.093Z,7.50
2023-12-11T00:41:32.813Z,7.57
2023-12-11T00:43:59.550Z,7.62
2023-12-11T00:46:26.807Z,7.68
2023-12-11T00:48:53.674Z,7.74
2023-12-11T00:51:21.932Z,7.69
2023-12-11T00:53:49.290Z,7.71
2023-12-11T00:56:16.581Z,7.72
2023-12-11T00:58:43.429Z,7.74
2023-12-11T01:01:10.833Z,7.80
2023-12-11T01:03:38.481Z,7.78
2023-12-11T01:06:05.832Z,7.78
2023-12-11T01:08:34.972Z,7.79
2023-12-11T01:11:01.666Z,7.76
2023-12-11T01:13:28.472Z,7.74
2023-12-11T01:15:55.267Z,7.75
2023-12-11T01:18:22.120Z,7.71
2023-12-11T01:20:48.848Z,7.54
2023-12-11T01:23:15.601Z,7.59
2023-12-11T01:25:42.718Z,7.62
2023-12-11T01:28:09.697Z,7.64
2023-12-11T01:30:36.749Z,7.63
2023-12-11T01:33:04.760Z,7.67
2023-12-11T01:35:35.082Z,7.65
2023-12-11T01:38:01.794Z,7.68
2023-12-11T01:40:28.471Z,7.73
2023-12-11T01:43:04.537Z,7.73
2023-12-11T01:45:37.789Z,7.69
2023-12-11T01:48:04.923Z,7.64
2023-12-11T01:50:31.770Z,7.68
2023-12-11T01:52:59.930Z,7.72
2023-12-11T01:55:26.847Z,7.74
2023-12-11T01:57:54.350Z,7.79
2023-12-11T02:00:21.158Z,7.81
2023-12-11T02:02:47.982Z,7.74
2023-12-11T02:05:14.767Z,7.72
2023-12-11T02:07:41.882Z,7.66
2023-12-11T02:10:09.158Z,7.72
2023-12-11T02:12:36.065Z,7.67
2023-12-11T02:15:02.793Z,7.70
2023-12-11T02:17:29.794Z,7.71
2023-12-11T02:19:56.711Z,7.78
2023-12-11T02:22:24.234Z,7.71
2023-12-11T02:24:57.334Z,7.66
2023-12-11T02:27:24.727Z,7.72
2023-12-11T02:29:54.607Z,7.76
2023-12-11T02:32:21.386Z,7.83
2023-12-11T02:34:49.117Z,7.75
2023-12-11T02:37:19.208Z,7.79
2023-12-11T02:39:46.917Z,7.81
2023-12-11T02:42:13.724Z,7.80
2023-12-11T02:44:40.973Z,7.73
2023-12-11T02:47:07.684Z,7.80
2023-12-11T02:49:34.519Z,7.78
2023-12-11T02:52:01.340Z,7.84
2023-12-11T02:54:28.101Z,7.85
2023-12-11T02:56:54.920Z,7.87
2023-12-11T02:59:21.630Z,7.87
2023-12-11T03:01:48.488Z,7.82
2023-12-11T03:04:15.650Z,7.71
2023-12-11T03:06:42.389Z,7.68
2023-12-11T03:09:09.240Z,7.69
2023-12-11T03:11:35.900Z,7.67
2023-12-11T03:14:02.624Z,7.59
2023-12-11T03:16:30.577Z,7.54
2023-12-11T03:18:57.362Z,7.53
2023-12-11T03:21:24.073Z,7.52
2023-12-11T03:23:50.941Z,7.59
2023-12-11T03:26:17.614Z,7.60
2023-12-11T03:28:44.298Z,7.57
2023-12-11T03:31:11.288Z,7.52
2023-12-11T03:33:38.152Z,7.41
2023-12-11T03:36:05.572Z,7.48
2023-12-11T03:38:32.365Z,7.49
2023-12-11T03:40:59.077Z,7.47
2023-12-11T03:43:25.758Z,7.39
2023-12-11T03:45:56.038Z,7.37
2023-12-11T03:48:22.866Z,7.36
2023-12-11T03:50:49.670Z,7.36
2023-12-11T03:53:16.697Z,7.34
2023-12-11T03:55:43.391Z,7.45
2023-12-11T03:58:10.093Z,7.51
2023-12-11T04:00:37.036Z,7.51
2023-12-11T04:03:03.933Z,7.50
2023-12-11T04:05:31.107Z,7.45
2023-12-11T04:07:57.784Z,7.48
2023-12-11T04:10:24.489Z,7.48
2023-12-11T04:12:52.156Z,7.49
2023-12-11T04:15:19.035Z,7.53
2023-12-11T04:17:45.749Z,7.52
2023-12-11T04:20:12.683Z,7.54
2023-12-11T04:22:39.484Z,7.54
2023-12-11T04:25:06.644Z,7.49
2023-12-11T04:27:33.472Z,7.49
2023-12-11T04:30:00.257Z,7.49
2023-12-11T04:32:27.134Z,7.48
2023-12-11T04:34:53.863Z,7.43
2023-12-11T04:37:20.586Z,7.40
2023-12-11T04:39:47.391Z,7.50
2023-12-11T04:42:14.071Z,7.52
2023-12-11T04:44:40.859Z,7.52
2023-12-11T04:47:07.551Z,7.50
2023-12-11T04:49:34.694Z,7.45
2023-12-11T04:52:01.572Z,7.42
2023-12-11T04:54:28.283Z,7.35
2023-12-11T04:56:55.074Z,7.29
2023-12-11T04:59:21.742Z,7.30
2023-12-11T05:01:48.599Z,7.24
2023-12-11T05:04:15.441Z,7.14
2023-12-11T05:06:42.506Z,7.06
2023-12-11T05:09:09.450Z,7.07
2023-12-11T05:11:36.790Z,7.04
2023-12-11T05:14:03.705Z,7.01
2023-12-11T05:16:33.090Z,7.02
2023-12-11T05:19:05.091Z,6.99
2023-12-11T05:21:32.080Z,6.99
2023-12-11T05:23:58.775Z,6.98
2023-12-11T05:26:25.473Z,6.98
2023-12-11T05:28:52.265Z,6.92
2023-12-11T05:31:18.952Z,6.88
2023-12-11T05:33:45.810Z,6.81
2023-12-11T05:36:12.601Z,6.85
2023-12-11T05:38:39.383Z,6.91
2023-12-11T05:41:06.360Z,6.98
2023-12-11T05:43:33.224Z,6.88
2023-12-11T05:46:06.088Z,7.06
2023-12-11T05:48:33.009Z,7.04
2023-12-11T05:50:59.913Z,7.04
2023-12-11T05:53:26.677Z,6.95
2023-12-11T05:55:53.457Z,6.97
2023-12-11T05:58:20.195Z,6.95
2023-12-11T06:00:47.537Z,6.92
2023-12-11T06:03:14.317Z,6.81
2023-12-11T06:05:41.252Z,6.74
2023-12-11T06:08:09.184Z,6.81
2023-12-11T06:10:35.919Z,6.82
2023-12-11T06:13:02.689Z,6.81
2023-12-11T06:15:29.541Z,6.83
2023-12-11T06:17:56.371Z,6.84
2023-12-11T06:20:23.233Z,6.81
2023-12-11T06:22:49.930Z,6.83
2023-12-11T06:25:16.691Z,6.82
2023-12-11T06:27:43.493Z,6.86
2023-12-11T06:30:11.064Z,6.86
2023-12-11T06:32:37.800Z,6.87
2023-12-11T06:35:05.190Z,6.85
2023-12-11T06:37:32.175Z,6.83
2023-12-11T06:39:59.090Z,6.90
2023-12-11T06:42:25.811Z,6.91
2023-12-11T06:44:54.579Z,6.93
2023-12-11T06:47:21.387Z,6.88
2023-12-11T06:49:48.557Z,6.95
2023-12-11T06:52:17.117Z,7.04
2023-12-11T06:54:44.094Z,7.05
2023-12-11T06:57:10.873Z,7.02
2023-12-11T06:59:37.605Z,7.08
2023-12-11T07:02:05.548Z,7.08
2023-12-11T07:04:32.466Z,7.13
2023-12-11T07:06:59.338Z,7.29
2023-12-11T07:09:27.758Z,7.39
2023-12-11T07:11:54.528Z,7.35
2023-12-11T07:14:21.527Z,7.24
2023-12-11T07:16:48.246Z,7.29
2023-12-11T07:19:15.171Z,7.38
2023-12-11T07:21:45.113Z,7.39
2023-12-11T07:24:11.807Z,7.35
2023-12-11T07:26:38.919Z,7.33
2023-12-11T07:29:05.717Z,7.40
2023-12-11T07:31:32.550Z,7.39
2023-12-11T07:33:59.375Z,7.30
2023-12-11T07:36:26.157Z,7.33
2023-12-11T07:38:52.880Z,7.43
2023-12-11T07:41:24.108Z,7.44
2023-12-11T07:43:51.399Z,7.43
2023-12-11T07:46:19.135Z,7.41
2023-12-11T07:48:46.431Z,7.53
2023-12-11T07:51:20.834Z,7.64
2023-12-11T07:53:48.020Z,7.54
2023-12-11T07:56:22.292Z,7.52
2023-12-11T07:58:49.227Z,7.55
2023-12-11T08:01:16.015Z,7.64
2023-12-11T08:03:43.303Z,7.63
2023-12-11T08:06:10.733Z,7.76
2023-12-11T08:08:46.877Z,7.87
2023-12-11T08:11:26.071Z,7.81
2023-12-11T08:13:52.830Z,7.65
2023-12-11T08:16:20.358Z,7.61
2023-12-11T08:18:49.274Z,7.57
2023-12-11T08:21:19.645Z,7.54
2023-12-11T08:23:48.927Z,7.58
2023-12-11T08:26:19.961Z,7.63
2023-12-11T08:28:48.149Z,7.70
2023-12-11T08:31:15.094Z,7.66
2023-12-11T08:33:41.944Z,7.67
2023-12-11T08:36:09.243Z,7.66
2023-12-11T08:38:36.020Z,7.57
2023-12-11T08:41:02.808Z,7.59
2023-12-11T08:43:29.615Z,7.58
2023-12-11T08:45:57.376Z,7.63
2023-12-11T08:48:26.724Z,7.65
2023-12-11T08:50:54.999Z,7.65
2023-12-11T08:53:21.799Z,7.63
2023-12-11T08:55:49.340Z,7.69
2023-12-11T08:58:16.365Z,7.66
2023-12-11T09:00:43.690Z,7.62
2023-12-11T09:03:10.698Z,7.66
2023-12-11T09:05:37.405Z,7.65
2023-12-11T09:08:04.344Z,7.67
2023-12-11T09:10:31.147Z,7.72
2023-12-11T09:12:58.232Z,7.74
2023-12-11T09:15:25.289Z,7.75
2023-12-11T09:17:52.114Z,7.70
2023-12-11T09:20:18.992Z,7.70
2023-12-11T09:22:47.334Z,7.71
2023-12-11T09:25:14.112Z,7.68
2023-12-11T09:27:41.001Z,7.70
2023-12-11T09:30:10.831Z,7.66
2023-12-11T09:32:38.016Z,7.63
2023-12-11T09:35:06.081Z,7.65
2023-12-11T09:37:33.555Z,7.66
2023-12-11T09:40:00.493Z,7.58
2023-12-11T09:42:28.238Z,7.54
2023-12-11T09:44:55.703Z,7.51
2023-12-11T09:47:30.456Z,7.47
2023-12-11T09:49:57.444Z,7.55
2023-12-11T09:52:24.686Z,7.67
2023-12-11T09:54:51.406Z,7.68
2023-12-11T09:57:18.152Z,7.62
2023-12-11T09:59:45.041Z,7.56
2023-12-11T10:02:17.041Z,7.52
2023-12-11T10:05:10.503Z,7.63
2023-12-11T10:07:41.761Z,7.59
2023-12-11T10:10:28.132Z,7.60
2023-12-11T10:12:56.333Z,7.63
2023-12-11T10:15:27.826Z,7.60
2023-12-11T10:18:03.552Z,7.61
2023-12-11T10:20:31.796Z,7.52
2023-12-11T10:23:03.996Z,7.64
2023-12-11T10:25:32.123Z,7.77
2023-12-11T10:28:09.606Z,7.70
2023-12-11T10:30:53.557Z,7.67
2023-12-11T10:33:21.849Z,7.66
2023-12-11T10:35:49.596Z,7.52
2023-12-11T10:38:24.446Z,7.52
2023-12-11T10:40:51.899Z,7.54
2023-12-11T10:43:19.102Z,7.62
2023-12-11T10:45:49.886Z,7.56
2023-12-11T10:48:18.703Z,7.64
2023-12-11T10:50:46.946Z,7.74
2023-12-11T10:53:13.875Z,7.76
2023-12-11T10:55:41.359Z,7.83
2023-12-11T10:58:09.662Z,7.85
2023-12-11T11:00:38.884Z,7.70
2023-12-11T11:03:08.239Z,7.79
2023-12-11T11:05:35.888Z,7.91
2023-12-11T11:08:30.982Z,7.85
2023-12-11T11:11:11.013Z,7.77
2023-12-11T11:13:56.885Z,7.84
2023-12-11T11:16:23.653Z,7.86
2023-12-11T11:19:16.974Z,7.78
2023-12-11T11:22:08.039Z,7.81
2023-12-11T11:24:36.402Z,7.95
2023-12-11T11:27:03.770Z,7.98
2023-12-11T11:29:44.791Z,8.09
2023-12-11T11:32:13.835Z,8.23
2023-12-11T11:34:45.109Z,8.18
2023-12-11T11:37:22.095Z,8.16
2023-12-11T11:40:05.848Z,8.30
2023-12-11T11:42:34.781Z,8.35
2023-12-11T11:45:04.450Z,8.39
2023-12-11T11:47:32.879Z,8.34
2023-12-11T11:50:12.116Z,8.32
2023-12-11T11:52:43.286Z,8.30
2023-12-11T11:55:25.434Z,8.29
2023-12-11T11:57:52.312Z,8.23
2023-12-11T12:00:27.078Z,8.20
2023-12-11T12:03:01.902Z,8.18
2023-12-11T12:05:28.770Z,8.16
2023-12-11T12:07:55.793Z,8.16
2023-12-11T12:10:22.820Z,8.17
2023-12-11T12:12:56.742Z,8.25
2023-12-11T12:15:24.101Z,8.23
2023-12-11T12:17:51.771Z,8.29
2023-12-11T12:20:20.294Z,8.29
2023-12-11T12:23:00.775Z,8.17
2023-12-11T12:25:28.994Z,8.08
2023-12-11T12:28:02.308Z,8.00
2023-12-11T12:30:29.987Z,7.99
2023-12-11T12:32:57.948Z,8.04
2023-12-11T12:35:25.358Z,8.07
2023-12-11T12:37:53.004Z,8.03
2023-12-11T12:40:19.878Z,7.93
2023-12-11T12:42:46.879Z,7.91
2023-12-11T12:45:34.018Z,7.86
2023-12-11T12:48:03.834Z,7.91
2023-12-11T12:50:31.096Z,7.90
2023-12-11T12:53:10.968Z,7.90
2023-12-11T12:55:40.335Z,7.91
2023-12-11T12:58:09.244Z,7.87
2023-12-11T13:00:36.859Z,7.87
2023-12-11T13:03:04.664Z,7.94
2023-12-11T13:05:47.187Z,7.97
2023-12-11T13:08:17.543Z,7.98
2023-12-11T13:10:57.755Z,7.97
2023-12-11T13:13:27.680Z,7.95
2023-12-11T13:15:55.646Z,7.90
2023-12-11T13:18:22.543Z,7.86
2023-12-11T13:20:51.449Z,7.91
2023-12-11T13:23:19.724Z,7.95
2023-12-11T13:25:46.862Z,7.90
2023-12-11T13:28:17.030Z,7.92
2023-12-11T13:30:44.118Z,7.91
2023-12-11T13:33:11.072Z,7.95
2023-12-11T13:35:38.078Z,7.94
2023-12-11T13:38:04.804Z,7.94
2023-12-11T13:40:31.548Z,7.98
2023-12-11T13:42:58.453Z,7.99
2023-12-11T13:45:25.250Z,7.98
2023-12-11T13:47:52.651Z,7.95
2023-12-11T13:50:19.622Z,7.84
2023-12-11T13:52:46.417Z,7.86
2023-12-11T13:55:13.317Z,7.81
2023-12-11T13:57:40.213Z,7.74
2023-12-11T14:00:07.600Z,7.70
2023-12-11T14:02:59.517Z,7.68
2023-12-11T14:05:21.182Z,7.74
2023-12-11T14:07:48.116Z,7.67
2023-12-11T14:10:14.859Z,7.66
2023-12-11T14:12:41.816Z,7.62
2023-12-11T14:15:09.049Z,7.58
2023-12-11T14:17:35.967Z,7.52
2023-12-11T14:20:02.801Z,7.50
2023-12-11T14:22:31.407Z,7.51
2023-12-11T14:24:58.226Z,7.47
2023-12-11T14:27:24.969Z,7.37
2023-12-11T14:29:54.505Z,7.33
2023-12-11T14:32:21.186Z,7.32
2023-12-11T14:34:48.015Z,7.24
2023-12-11T14:37:17.740Z,7.17
2023-12-11T14:39:45.458Z,7.21
2023-12-11T14:42:12.778Z,7.21
2023-12-11T14:44:41.017Z,7.14
2023-12-11T14:47:08.069Z,7.17
2023-12-11T14:49:35.906Z,6.97
2023-12-11T14:52:03.486Z,6.93
2023-12-11T14:54:30.376Z,6.94
2023-12-11T14:56:57.109Z,6.91
2023-12-11T14:59:24.767Z,6.93
2023-12-11T15:01:51.814Z,6.82
2023-12-11T15:04:19.063Z,6.66
2023-12-11T15:06:53.486Z,6.56
2023-12-11T15:09:21.299Z,6.56
2023-12-11T15:11:48.041Z,6.47
2023-12-11T15:14:18.401Z,6.41
2023-12-11T15:16:47.344Z,6.41
2023-12-11T15:19:14.409Z,6.59
2023-12-11T15:21:41.377Z,6.60
2023-12-11T15:24:08.290Z,6.49
2023-12-11T15:26:37.219Z,6.43
2023-12-11T15:29:08.255Z,6.42
2023-12-11T15:31:38.377Z,6.36
2023-12-11T15:34:05.402Z,6.38
2023-12-11T15:36:34.156Z,6.41
2023-12-11T15:39:00.884Z,6.47
2023-12-11T15:41:27.730Z,6.49
2023-12-11T15:43:55.083Z,6.41
2023-12-11T15:46:21.820Z,6.35
2023-12-11T15:48:48.880Z,6.41
2023-12-11T15:51:17.905Z,6.41
2023-12-11T15:53:46.009Z,6.40
2023-12-11T15:56:13.859Z,6.23
2023-12-11T15:58:40.981Z,6.19
2023-12-11T16:01:10.009Z,6.14
2023-12-11T16:03:37.469Z,6.10
2023-12-11T16:06:04.491Z,6.03
2023-12-11T16:08:31.225Z,6.07
2023-12-11T16:10:58.234Z,6.10
2023-12-11T16:13:25.424Z,6.05
2023-12-11T16:15:52.497Z,6.06
2023-12-11T16:18:19.566Z,6.05
2023-12-11T16:20:46.364Z,5.98
2023-12-11T16:23:13.512Z,5.93
2023-12-11T16:25:50.498Z,5.86
2023-12-11T16:28:23.100Z,5.89
2023-12-11T16:30:50.131Z,5.86
2023-12-11T16:33:17.437Z,5.83
2023-12-11T16:35:44.761Z,5.82
2023-12-11T16:38:11.458Z,5.74
2023-12-11T16:40:40.900Z,5.78
2023-12-11T16:43:08.135Z,5.83
2023-12-11T16:45:34.983Z,5.79
2023-12-11T16:48:01.922Z,5.80
2023-12-11T16:50:28.788Z,5.75
2023-12-11T16:52:57.975Z,5.66
2023-12-11T16:55:24.786Z,5.74
2023-12-11T16:57:51.882Z,5.86
2023-12-11T17:00:22.360Z,5.81
2023-12-11T17:02:49.037Z,5.82
2023-12-11T17:05:15.931Z,5.86
2023-12-11T17:07:44.369Z,5.96
2023-12-11T17:10:11.236Z,5.94
2023-12-11T17:12:37.991Z,5.93
2023-12-11T17:15:05.150Z,5.97
2023-12-11T17:17:32.191Z,5.98
2023-12-11T17:19:59.336Z,5.97
2023-12-11T17:22:26.712Z,5.96
2023-12-11T17:24:53.860Z,5.91
2023-12-11T17:27:20.752Z,5.88
2023-12-11T17:29:47.422Z,5.96
2023-12-11T17:32:14.082Z,6.02
2023-12-11T17:34:40.980Z,6.03
2023-12-11T17:37:08.007Z,5.90
2023-12-11T17:39:34.804Z,5.80
2023-12-11T17:42:05.277Z,5.76
2023-12-11T17:44:35.212Z,5.79
2023-12-11T17:47:11.573Z,5.93
2023-12-11T17:49:45.831Z,5.97
2023-12-11T17:52:14.077Z,5.95
2023-12-11T17:54:42.822Z,5.90
2023-12-11T17:57:14.376Z,5.91
2023-12-11T17:59:43.703Z,5.88
2023-12-11T18:02:14.402Z,5.81
2023-12-11T18:04:42.855Z,5.76
2023-12-11T18:07:09.639Z,5.78
2023-12-11T18:09:37.624Z,5.77
2023-12-11T18:12:05.768Z,5.73
2023-12-11T18:14:32.688Z,5.70
2023-12-11T18:16:59.356Z,5.74
2023-12-11T18:19:30.386Z,5.80
2023-12-11T18:22:00.118Z,5.87
2023-12-11T18:24:27.683Z,5.82
2023-12-11T18:26:54.392Z,5.68
2023-12-11T18:29:23.972Z,5.62
2023-12-11T18:31:52.298Z,5.62
2023-12-11T18:34:19.264Z,5.58
2023-12-11T18:36:46.346Z,5.58
2023-12-11T18:39:14.798Z,5.52
2023-12-11T18:41:44.786Z,5.50
2023-12-11T18:44:13.092Z,5.50
2023-12-11T18:46:40.610Z,5.46
2023-12-11T18:49:07.590Z,5.40
2023-12-11T18:51:34.732Z,5.37
2023-12-11T18:54:02.163Z,5.48
2023-12-11T18:56:29.873Z,5.49
2023-12-11T18:58:56.741Z,5.58
2023-12-11T19:01:27.803Z,5.60
2023-12-11T19:03:55.180Z,5.58
2023-12-11T19:06:25.682Z,5.60
2023-12-11T19:08:55.316Z,5.63
2023-12-11T19:11:22.728Z,5.62
2023-12-11T19:13:52.042Z,5.55
2023-12-11T19:16:19.750Z,5.50
2023-12-11T19:18:46.987Z,5.44
2023-12-11T19:21:14.865Z,5.45
2023-12-11T19:23:41.568Z,5.48
2023-12-11T19:26:10.723Z,5.44
2023-12-11T19:28:37.989Z,5.53
2023-12-11T19:31:05.191Z,5.58
2023-12-11T19:33:32.071Z,5.56
2023-12-11T19:35:58.781Z,5.55
2023-12-11T19:38:25.690Z,5.63
2023-12-11T19:40:52.558Z,5.69
2023-12-11T19:43:19.353Z,5.68
2023-12-11T19:45:47.378Z,5.70
2023-12-11T19:48:17.166Z,5.75
2023-12-11T19:50:44.190Z,5.74
2023-12-11T19:53:10.873Z,5.68
2023-12-11T19:55:40.860Z,5.64
2023-12-11T19:58:09.424Z,5.63
2023-12-11T20:00:36.205Z,5.65
2023-12-11T20:03:05.310Z,5.62
2023-12-11T20:05:32.897Z,5.57
2023-12-11T20:08:00.183Z,5.61
2023-12-11T20:10:27.234Z,5.58
2023-12-11T20:12:54.054Z,5.56
2023-12-11T20:15:21.084Z,5.55
2023-12-11T20:17:48.082Z,5.53
2023-12-11T20:20:15.532Z,5.49
2023-12-11T20:22:42.244Z,5.52
2023-12-11T20:25:09.262Z,5.48
2023-12-11T20:27:36.551Z,5.54
2023-12-11T20:30:03.769Z,5.55
2023-12-11T20:32:31.680Z,5.48
2023-12-11T20:34:59.544Z,5.50
2023-12-11T20:37:28.483Z,5.57
2023-12-11T20:39:56.797Z,5.55
2023-12-11T20:42:23.478Z,5.56
2023-12-11T20:44:53.640Z,5.56
2023-12-11T20:47:20.679Z,5.50
2023-12-11T20:49:48.042Z,5.44
2023-12-11T20:52:15.093Z,5.48
2023-12-11T20:54:43.708Z,5.52
2023-12-11T20:57:11.736Z,5.34
2023-12-11T20:59:42.817Z,5.34
2023-12-11T21:02:17.078Z,5.34
2023-12-11T21:04:44.656Z,5.36
2023-12-11T21:07:11.588Z,5.35
2023-12-11T21:09:39.656Z,5.43
2023-12-11T21:12:13.790Z,5.52
2023-12-11T21:14:43.272Z,5.52
2023-12-11T21:17:10.134Z,5.43
2023-12-11T21:19:38.042Z,5.38
2023-12-11T21:22:06.459Z,5.29
2023-12-11T21:24:36.129Z,5.27
2023-12-11T21:27:03.976Z,5.27
2023-12-11T21:29:30.883Z,5.23
2023-12-11T21:31:57.584Z,5.23
2023-12-11T21:34:25.738Z,5.23
2023-12-11T21:36:52.704Z,5.12
2023-12-11T21:39:19.392Z,5.18
2023-12-11T21:41:46.184Z,5.06
2023-12-11T21:44:13.033Z,5.05
2023-12-11T21:46:39.833Z,5.13
2023-12-11T21:49:06.893Z,5.12
2023-12-11T21:51:35.046Z,5.08
2023-12-11T21:54:02.299Z,5.05
2023-12-11T21:56:30.786Z,4.99
2023-12-11T21:58:57.796Z,5.02
2023-12-11T22:01:24.719Z,5.03
2023-12-11T22:03:52.027Z,5.06
2023-12-11T22:06:19.405Z,5.07
2023-12-11T22:08:46.260Z,5.04
2023-12-11T22:11:14.975Z,5.03
2023-12-11T22:13:42.586Z,4.95
2023-12-11T22:16:09.421Z,4.91
2023-12-11T22:18:36.211Z,4.92
2023-12-11T22:21:03.693Z,4.97
2023-12-11T22:23:30.378Z,5.00
2023-12-11T22:25:58.222Z,5.05
2023-12-11T22:28:25.173Z,5.06
2023-12-11T22:30:51.909Z,5.08
2023-12-11T22:33:18.673Z,5.06
2023-12-11T22:35:46.035Z,5.01
2023-12-11T22:38:13.342Z,5.01
2023-12-11T22:40:41.334Z,4.99
2023-12-11T22:43:08.218Z,5.01
2023-12-11T22:45:34.971Z,4.97
2023-12-11T22:48:02.178Z,4.90
2023-12-11T22:50:31.500Z,4.82
2023-12-11T22:52:58.612Z,4.76
2023-12-11T22:55:25.358Z,4.73
2023-12-11T22:58:05.675Z,4.70
2023-12-11T23:00:39.302Z,4.64
2023-12-11T23:03:06.458Z,4.65
2023-12-11T23:05:33.252Z,4.64
2023-12-11T23:08:00.273Z,4.58
2023-12-11T23:10:27.337Z,4.53
2023-12-11T23:12:54.096Z,4.52
2023-12-11T23:15:22.111Z,4.47
2023-12-11T23:17:49.010Z,4.40
2023-12-11T23:20:16.394Z,4.36
2023-12-11T23:22:43.298Z,4.34
2023-12-11T23:25:10.373Z,4.27
2023-12-11T23:27:37.661Z,4.22
2023-12-11T23:30:07.853Z,4.21
2023-12-11T23:32:36.363Z,4.20
2023-12-11T23:35:04.211Z,4.22
2023-12-11T23:37:31.706Z,4.13
2023-12-11T23:39:58.775Z,4.08
2023-12-11T23:42:28.480Z,4.08
2023-12-11T23:44:55.493Z,4.04
2023-12-11T23:47:22.241Z,3.95
2023-12-11T23:49:49.448Z,3.89
2023-12-11T23:52:16.376Z,3.83
2023-12-11T23:54:43.089Z,3.86
2023-12-11T23:57:09.772Z,3.80
2023-12-11T23:59:36.635Z,3.82
